Airfield :
LOGIN :

Register | Disclaimer

   EN    FR    IT 

 










Legend :    VFR   Marginal VFR   IFR   Intensive IFR   Very Intensive IFR
Visi :
Ceiling :
>= 8 km
>= 3000ft
5 to 8 km
1000 to 3000 ft
1500m to 5 km
500 to 1000 ft
800 to 1500m
200 to 500 ft
< 800m
< 200 ft
Symbols :   Thunderstorms  Fog  Heavy snow  Heavy precipitations  Wind > 20 kt
SIGMETs :     Misc.  Thunderstorms  Icing  Turbulence  Mountain Waves  Volcanic Ashes






- Airport Elevation : 358 ft


EGTC - Cranfield

CURRENT METAR :
  • 011320Z 35005KT 9999 SCT006 16/14 Q1012

EXPIRED METARs :
  • 011250Z 35007KT 9999 SCT006 BKN024 15/15 Q1012
  • 011150Z 34006KT 280V010 4000 -SHRA VCSH BKN005 14/14 Q1011
  • 011120Z 34005KT 280V010 5000 VCSH SCT004 OVC018 14/14 Q1011 RESHRADZ
  • 011050Z 27006KT 230V310 3000 SHRADZ VCSH SCT004 OVC015 14/14 Q1011

TAF AMD TAF EGTC
Valid from the 01 at 12:00 until the 01 at 18:00 UTC


011157Z 0112/0118 34005KT 9999 SCT025
PROB40
TEMPO 0112/0115 4000 RADZ BKN005
PROB30
TEMPO 0115/0118 8000 -SHRA BKN014



MET'MAP, your aeronautical weather chart ! - Copyright ORBIFLY December 2007 - Disclaimer

ORBIFLY MET'MAP TEAM :

Programming & Development : Alexandra Zaïnal
Concept & original design : Baudouin d'Aumeries
Assistance for programming : Marc-Olivier Méhu
Technical & hardware support : Manuel Goepfert

Contact : metmap@orbifly.com




SOURCES & CREDITS :

   NOAA